Time;durP1;ratioP1;P1;durP2;ratioP2;P2;SDS_P1;SDS_P2;PMS_P1;PMS_P2;Temp;Humidity;BMP_temperature;BMP_pressure;BME280_temperature;BME280_humidity;BME280_pressure;Samples;Min_cycle;Max_cycle;Signal;HPM_P1;HPM_P2
2022/09/28 00:02:18;;;;;;;0.20;0.20;;;13.30;76.40;13.50;95006.00;;;;5049227;28;20304;-87
2022/09/28 00:04:50;;;;;;;0.40;0.40;;;13.30;76.50;13.50;95003.00;;;;5048233;28;20256;-86
2022/09/28 00:07:27;;;;;;;0.30;0.30;;;13.40;76.70;13.60;95006.00;;;;5045917;28;20204;-86
2022/09/28 00:09:55;;;;;;;0.23;0.23;;;13.40;76.70;13.60;95003.00;;;;5041169;28;20345;-86
2022/09/28 00:12:23;;;;;;;0.17;0.17;;;13.40;76.80;13.60;95001.00;;;;5047259;28;20223;-86
2022/09/28 00:14:53;;;;;;;0.20;0.20;;;13.40;76.70;13.60;94992.00;;;;5040437;28;20204;-86
2022/09/28 00:17:25;;;;;;;0.27;0.27;;;13.40;76.80;13.60;94992.00;;;;5047596;28;20254;-86
2022/09/28 00:19:52;;;;;;;0.37;0.20;;;13.40;76.80;13.60;94989.00;;;;5049271;28;20197;-86
2022/09/28 00:22:19;;;;;;;0.30;0.30;;;13.50;76.90;13.70;94986.00;;;;5051541;28;20220;-86
2022/09/28 00:24:48;;;;;;;0.20;0.20;;;13.50;77.00;13.70;94979.00;;;;5051496;28;20208;-86
2022/09/28 00:27:16;;;;;;;0.57;0.20;;;13.50;77.10;13.70;94965.00;;;;5052802;28;20657;-85
2022/09/28 00:29:44;;;;;;;1.40;0.40;;;13.50;77.30;13.70;94961.00;;;;5052493;28;20192;-86
2022/09/28 00:32:13;;;;;;;0.20;0.20;;;13.50;77.40;13.70;94958.00;;;;5051719;28;20235;-86
2022/09/28 00:34:44;;;;;;;1.37;0.20;;;13.50;77.60;13.70;94957.00;;;;5050934;28;20588;-86
2022/09/28 00:37:13;;;;;;;0.20;0.20;;;13.50;77.90;13.60;94956.00;;;;5053065;28;20429;-86
2022/09/28 00:39:42;;;;;;;0.40;0.30;;;13.50;77.90;13.60;94955.00;;;;5053385;28;20201;-86
2022/09/28 00:42:16;;;;;;;0.43;0.17;;;13.50;78.10;13.60;94947.00;;;;5052745;28;20221;-85
2022/09/28 00:44:50;;;;;;;1.27;0.40;;;13.50;78.30;13.60;94934.00;;;;5050565;28;20477;-86
2022/09/28 00:47:37;;;;;;;0.30;0.30;;;13.50;78.30;13.60;94921.00;;;;5048891;28;20196;-85
2022/09/28 00:50:13;;;;;;;0.50;0.50;;;13.50;78.50;13.50;94906.00;;;;5045463;28;20192;-85
2022/09/28 00:52:52;;;;;;;0.50;0.50;;;13.50;78.50;13.40;94906.00;;;;5052369;28;20212;-85
2022/09/28 00:55:32;;;;;;;0.53;0.53;;;13.50;78.60;13.40;94904.00;;;;5052959;28;20283;-85
2022/09/28 00:58:08;;;;;;;0.50;0.50;;;13.40;78.60;13.40;94899.00;;;;5049335;28;20212;-85
2022/09/28 01:00:35;;;;;;;1.17;0.90;;;13.40;78.60;13.40;94893.00;;;;5052523;28;20223;-85
2022/09/28 01:03:04;;;;;;;1.37;1.13;;;13.40;78.70;13.40;94891.00;;;;5051977;28;20661;-86
2022/09/28 01:05:32;;;;;;;0.60;0.60;;;13.30;78.90;13.40;94877.00;;;;5051655;28;20629;-86
2022/09/28 01:08:01;;;;;;;1.63;0.50;;;13.30;79.10;13.40;94878.00;;;;5051824;28;20228;-86
2022/09/28 01:10:31;;;;;;;0.67;0.67;;;13.30;79.30;13.40;94867.00;;;;5051817;28;20295;-86
2022/09/28 01:12:59;;;;;;;0.80;0.80;;;13.30;79.30;13.40;94864.00;;;;5052463;28;20246;-86
2022/09/28 01:15:29;;;;;;;1.63;0.70;;;13.30;79.50;13.40;94871.00;;;;5050813;28;20278;-85
2022/09/28 01:18:11;;;;;;;0.70;0.70;;;13.30;79.70;13.40;94866.00;;;;5051758;28;20188;-85
2022/09/28 01:21:01;;;;;;;0.77;0.77;;;13.30;80.10;13.40;94863.00;;;;5046233;28;20216;-85
2022/09/28 01:24:13;;;;;;;1.43;1.30;;;13.40;80.40;13.50;94850.00;;;;5050702;28;20231;-86
2022/09/28 01:27:08;;;;;;;1.80;1.40;;;13.40;80.70;13.50;94850.00;;;;5052124;28;20276;-85
2022/09/28 01:29:52;;;;;;;1.43;1.33;;;13.40;80.50;13.50;94834.00;;;;5050983;28;20289;-86
2022/09/28 01:32:49;;;;;;;1.50;1.40;;;13.40;80.40;13.60;94837.00;;;;5052578;28;20251;-86
2022/09/28 01:35:24;;;;;;;0.80;0.80;;;13.40;80.80;13.60;94835.00;;;;5051978;28;20201;-85
2022/09/28 01:38:00;;;;;;;0.70;0.70;;;13.40;80.40;13.60;94835.00;;;;5051838;28;20199;-86
2022/09/28 01:40:30;;;;;;;0.50;0.40;;;13.40;80.50;13.70;94827.00;;;;5050733;28;20192;-85
2022/09/28 01:43:04;;;;;;;0.40;0.30;;;13.50;80.60;13.70;94818.00;;;;5051498;28;20234;-86
2022/09/28 01:45:40;;;;;;;0.40;0.30;;;13.50;81.40;13.70;94808.00;;;;5051868;28;20235;-86
2022/09/28 01:48:16;;;;;;;0.20;0.20;;;13.50;80.70;13.70;94811.00;;;;5052148;28;20398;-85
2022/09/28 01:50:53;;;;;;;0.20;0.20;;;13.50;80.70;13.80;94809.00;;;;5051406;28;20628;-85
2022/09/28 01:53:28;;;;;;;0.40;0.30;;;13.50;80.60;13.80;94802.00;;;;5051764;28;20204;-86
2022/09/28 01:56:01;;;;;;;0.30;0.20;;;13.50;80.50;13.80;94798.00;;;;5051519;28;20224;-85
2022/09/28 01:58:38;;;;;;;0.20;0.20;;;13.60;80.60;13.80;94800.00;;;;5051220;28;20242;-85
2022/09/28 02:01:17;;;;;;;0.20;0.20;;;13.60;80.70;13.80;94794.00;;;;5051631;28;20220;-85
2022/09/28 02:03:54;;;;;;;0.20;0.20;;;13.60;80.60;13.80;94793.00;;;;5051489;28;20556;-85
2022/09/28 02:06:27;;;;;;;0.20;0.20;;;13.60;80.50;13.80;94789.00;;;;5050807;28;20204;-85
2022/09/28 02:09:06;;;;;;;0.20;0.20;;;13.60;80.50;13.90;94785.00;;;;5043729;28;20290;-85
2022/09/28 02:11:36;;;;;;;0.37;0.23;;;13.70;80.80;13.90;94778.00;;;;5047324;28;20213;-85
2022/09/28 02:14:09;;;;;;;0.70;0.20;;;13.70;80.80;13.90;94768.00;;;;5050680;28;20204;-85
2022/09/28 02:16:41;;;;;;;0.60;0.20;;;13.70;80.80;13.90;94763.00;;;;5051734;28;20189;-85
2022/09/28 02:19:13;;;;;;;0.77;0.30;;;13.70;80.70;13.90;94750.00;;;;5050827;28;20276;-85
2022/09/28 02:21:47;;;;;;;0.20;0.17;;;13.70;80.50;14.00;94738.00;;;;5050137;28;20220;-85
2022/09/28 02:24:23;;;;;;;0.20;0.20;;;13.80;80.40;14.00;94741.00;;;;5040356;28;20208;-85
2022/09/28 02:26:54;;;;;;;0.10;0.10;;;13.70;80.10;14.00;94738.00;;;;5034533;28;20223;-85
2022/09/28 02:29:24;;;;;;;0.20;0.20;;;13.80;80.20;14.00;94735.00;;;;5049517;28;20223;-85
2022/09/28 02:31:52;;;;;;;0.40;0.20;;;13.80;80.20;14.00;94730.00;;;;5034084;28;20217;-85
2022/09/28 02:34:19;;;;;;;0.10;0.10;;;13.80;80.10;14.00;94732.00;;;;5050273;28;20261;-85
2022/09/28 02:36:48;;;;;;;0.23;0.10;;;13.80;80.10;14.00;94730.00;;;;5047452;28;20197;-85
2022/09/28 02:39:17;;;;;;;0.20;0.20;;;13.80;80.10;14.00;94723.00;;;;5049168;28;20250;-86
2022/09/28 02:42:06;;;;;;;0.10;0.10;;;13.80;80.70;14.00;94718.00;;;;5050432;28;21027;-85
2022/09/28 02:45:20;;;;;;;1.07;0.20;;;13.90;80.10;14.00;94707.00;;;;5050095;28;20311;-85
2022/09/28 02:48:08;;;;;;;0.17;0.10;;;13.90;80.20;14.00;94715.00;;;;5004332;28;20294;-86
2022/09/28 02:50:50;;;;;;;0.20;0.20;;;13.90;79.60;14.00;94715.00;;;;5050281;28;20609;-85
2022/09/28 02:53:53;;;;;;;0.17;0.17;;;13.80;79.20;14.00;94703.00;;;;5051461;28;20205;-85
2022/09/28 02:56:59;;;;;;;0.10;0.10;;;13.80;79.20;13.90;94701.00;;;;5047411;28;20204;-85
2022/09/28 02:59:45;;;;;;;0.30;0.10;;;13.80;79.10;13.90;94695.00;;;;5047705;28;20193;-85
2022/09/28 03:02:26;;;;;;;0.20;0.10;;;13.80;78.80;13.80;94690.00;;;;5048636;28;20716;-85
2022/09/28 03:05:11;;;;;;;0.30;0.20;;;13.80;78.70;13.80;94679.00;;;;5048144;28;20316;-85
2022/09/28 03:07:48;;;;;;;0.20;0.20;;;13.70;78.50;13.70;94675.00;;;;5049393;28;20248;-85
2022/09/28 03:10:24;;;;;;;0.20;0.10;;;13.70;78.30;13.70;94667.00;;;;5051145;28;20656;-85
2022/09/28 03:12:53;;;;;;;0.70;0.10;;;13.60;78.20;13.60;94664.00;;;;5048854;28;20261;-85
2022/09/28 03:15:24;;;;;;;0.20;0.10;;;13.60;78.10;13.60;94661.00;;;;5048743;28;20454;-85
2022/09/28 03:17:54;;;;;;;0.20;0.20;;;13.50;77.90;13.50;94655.00;;;;5050752;28;20548;-85
2022/09/28 03:20:21;;;;;;;0.20;0.20;;;13.50;77.80;13.50;94656.00;;;;5050600;28;20240;-85
2022/09/28 03:22:48;;;;;;;0.20;0.20;;;13.40;77.70;13.40;94645.00;;;;5050241;28;20612;-85
2022/09/28 03:25:16;;;;;;;0.27;0.20;;;13.40;77.80;13.40;94646.00;;;;5048904;28;20224;-85
2022/09/28 03:27:44;;;;;;;0.40;0.40;;;13.40;77.70;13.40;94639.00;;;;5047748;28;20201;-85
2022/09/28 03:30:12;;;;;;;0.37;0.20;;;13.30;77.50;13.40;94642.00;;;;5043807;28;20228;-85
2022/09/28 03:32:41;;;;;;;0.20;0.20;;;13.30;77.50;13.30;94638.00;;;;5048302;28;20266;-85
2022/09/28 03:35:10;;;;;;;0.23;0.20;;;13.20;77.40;13.20;94638.00;;;;5048853;28;20264;-85
2022/09/28 03:37:37;;;;;;;0.10;0.10;;;13.20;77.50;13.20;94637.00;;;;5043397;28;20566;-85
2022/09/28 03:40:06;;;;;;;0.23;0.23;;;13.10;77.50;13.20;94643.00;;;;5049117;28;20201;-85
2022/09/28 03:42:37;;;;;;;0.53;0.10;;;13.10;77.60;13.10;94632.00;;;;5049241;28;20300;-85
2022/09/28 03:45:05;;;;;;;0.27;0.20;;;13.10;77.70;13.10;94629.00;;;;5049579;28;20592;-86
2022/09/28 03:47:32;;;;;;;0.20;0.20;;;13.00;77.70;13.10;94618.00;;;;5050211;28;20243;-86
2022/09/28 03:50:00;;;;;;;0.40;0.20;;;13.00;77.80;13.10;94622.00;;;;5050698;28;20295;-86
2022/09/28 03:52:28;;;;;;;0.50;0.50;;;13.00;77.90;13.00;94604.00;;;;5050128;28;20216;-86
2022/09/28 03:54:55;;;;;;;0.40;0.40;;;12.90;78.00;13.00;94612.00;;;;5052962;28;20216;-86
2022/09/28 03:57:23;;;;;;;0.30;0.30;;;12.90;78.70;13.00;94611.00;;;;5053668;28;20599;-86
2022/09/28 03:59:50;;;;;;;0.57;0.40;;;12.90;78.10;13.00;94596.00;;;;5052839;28;20254;-85
2022/09/28 04:02:17;;;;;;;0.40;0.40;;;12.90;78.10;13.00;94596.00;;;;5051887;28;20217;-86
2022/09/28 04:04:47;;;;;;;0.40;0.40;;;12.90;78.30;13.00;94600.00;;;;5053299;28;20210;-86
2022/09/28 04:07:16;;;;;;;0.43;0.43;;;12.90;78.30;13.00;94596.00;;;;5052888;28;20200;-84
2022/09/28 04:09:44;;;;;;;0.40;0.40;;;12.90;78.40;13.00;94591.00;;;;5054032;28;20247;-85
2022/09/28 04:12:12;;;;;;;0.97;0.40;;;12.90;78.40;13.00;94591.00;;;;5052679;28;20239;-85
2022/09/28 04:14:39;;;;;;;0.40;0.40;;;12.90;78.50;13.00;94599.00;;;;5054488;28;20208;-86
2022/09/28 04:17:08;;;;;;;0.43;0.40;;;12.90;78.70;13.10;94591.00;;;;5053233;28;20580;-85
2022/09/28 04:19:35;;;;;;;0.50;0.50;;;12.90;78.90;13.10;94591.00;;;;5053067;28;20644;-85
2022/09/28 04:22:03;;;;;;;0.40;0.40;;;12.90;79.00;13.10;94588.00;;;;5054203;28;20637;-85
2022/09/28 04:24:30;;;;;;;0.60;0.60;;;12.90;79.10;13.20;94588.00;;;;5053441;28;20282;-85
2022/09/28 04:29:44;;;;;;;0.80;0.43;;;13.00;79.30;13.20;94587.00;;;;5052986;28;20201;-85
2022/09/28 04:32:11;;;;;;;0.80;0.50;;;13.00;79.30;13.30;94587.00;;;;5048618;28;20310;-85
2022/09/28 04:34:39;;;;;;;1.00;0.57;;;13.00;79.40;13.30;94580.00;;;;5051260;28;20196;-85
2022/09/28 04:37:06;;;;;;;1.13;0.30;;;13.00;79.40;13.30;94586.00;;;;5053059;28;20200;-85
2022/09/28 04:39:33;;;;;;;1.07;0.40;;;13.10;79.50;13.40;94581.00;;;;5052786;28;20228;-86
2022/09/28 04:42:01;;;;;;;0.30;0.30;;;13.10;79.50;13.40;94565.00;;;;5053308;28;20727;-85
2022/09/28 04:44:29;;;;;;;0.40;0.20;;;13.20;79.80;13.40;94573.00;;;;5051154;28;20244;-85
2022/09/28 04:46:56;;;;;;;1.17;0.50;;;13.20;79.80;13.50;94571.00;;;;5053163;28;20247;-85
2022/09/28 04:49:24;;;;;;;0.60;0.47;;;13.20;79.80;13.50;94569.00;;;;5053742;28;20205;-86
2022/09/28 04:51:51;;;;;;;0.80;0.47;;;13.30;79.80;13.50;94572.00;;;;5032391;28;20634;-85
2022/09/28 04:54:19;;;;;;;1.77;0.40;;;13.30;79.90;13.60;94570.00;;;;5038421;28;20197;-85
2022/09/28 04:56:46;;;;;;;0.37;0.37;;;13.30;79.60;13.60;94572.00;;;;5053282;28;20246;-85
2022/09/28 04:59:14;;;;;;;0.40;0.40;;;13.40;79.70;13.60;94568.00;;;;5052908;28;20188;-86
2022/09/28 05:01:41;;;;;;;0.50;0.30;;;13.40;79.70;13.60;94567.00;;;;5052483;28;20232;-85
2022/09/28 05:04:09;;;;;;;0.50;0.30;;;13.40;79.80;13.70;94568.00;;;;5053050;28;20244;-86
2022/09/28 05:06:36;;;;;;;0.30;0.30;;;13.50;79.70;13.70;94571.00;;;;5068017;23;20448;-80
2022/09/28 05:09:03;;;;;;;0.87;0.30;;;13.50;79.70;13.70;94576.00;;;;5058591;28;20239;-79
2022/09/28 05:11:30;;;;;;;0.87;0.20;;;13.50;79.70;13.70;94564.00;;;;5068219;28;20248;-80
2022/09/28 05:13:57;;;;;;;0.30;0.30;;;13.50;79.70;13.80;94569.00;;;;5063698;28;20204;-80
2022/09/28 05:16:27;;;;;;;0.30;0.30;;;13.60;79.60;13.80;94562.00;;;;5067748;28;20207;-79
2022/09/28 05:18:55;;;;;;;2.17;0.33;;;13.60;79.60;13.90;94570.00;;;;5067527;28;20226;-80
2022/09/28 05:21:24;;;;;;;0.57;0.30;;;13.60;79.40;13.90;94566.00;;;;5074136;28;20215;-80
2022/09/28 05:23:54;;;;;;;0.27;0.20;;;13.70;80.00;13.90;94574.00;;;;5070878;28;20283;-81
2022/09/28 05:26:22;;;;;;;0.57;0.27;;;13.70;79.30;13.90;94564.00;;;;5069757;28;20687;-81
2022/09/28 05:28:49;;;;;;;0.30;0.30;;;13.70;79.10;13.90;94566.00;;;;5072304;28;20246;-80
2022/09/28 05:31:17;;;;;;;0.10;0.10;;;13.80;79.10;13.90;94567.00;;;;5070024;28;20200;-80
2022/09/28 05:33:45;;;;;;;0.83;0.30;;;13.70;78.90;13.90;94570.00;;;;5075075;28;20287;-81
2022/09/28 05:36:13;;;;;;;0.50;0.30;;;13.80;78.80;13.90;94570.00;;;;5072547;28;20659;-81
2022/09/28 05:38:40;;;;;;;0.20;0.20;;;13.80;79.50;13.90;94567.00;;;;5056419;28;20661;-81
2022/09/28 05:41:07;;;;;;;0.17;0.17;;;13.80;78.70;13.90;94563.00;;;;5060795;28;20216;-81
2022/09/28 05:43:35;;;;;;;0.37;0.30;;;13.80;78.70;13.90;94554.00;;;;5072322;28;20607;-81
2022/09/28 05:46:02;;;;;;;0.20;0.10;;;13.80;78.70;13.90;94559.00;;;;5071302;28;20281;-80
2022/09/28 05:48:29;;;;;;;0.20;0.20;;;13.80;78.80;13.90;94546.00;;;;5075276;28;20243;-79
2022/09/28 05:50:58;;;;;;;0.20;0.20;;;13.80;78.50;13.90;94542.00;;;;5072563;28;20212;-80
2022/09/28 05:53:26;;;;;;;0.43;0.20;;;13.80;78.50;13.90;94527.00;;;;5073350;28;20202;-79
2022/09/28 05:55:57;;;;;;;0.60;0.20;;;13.80;78.60;13.90;94523.00;;;;5063666;28;20214;-80
2022/09/28 05:58:24;;;;;;;0.73;0.20;;;13.80;78.70;13.90;94518.00;;;;5073632;28;20231;-80
2022/09/28 06:00:55;;;;;;;0.10;0.10;;;13.80;78.80;13.90;94517.00;;;;5063263;28;20221;-80
2022/09/28 06:03:22;;;;;;;0.10;0.10;;;13.80;78.80;13.90;94518.00;;;;5073015;28;20192;-79
2022/09/28 06:05:50;;;;;;;0.80;0.70;;;13.80;78.60;13.90;94512.00;;;;5064771;28;20269;-80
2022/09/28 06:08:18;;;;;;;0.90;0.40;;;13.80;78.50;13.80;94519.00;;;;5076361;28;20227;-80
2022/09/28 06:10:46;;;;;;;0.30;0.20;;;13.80;78.40;13.80;94517.00;;;;5068126;28;20662;-80
2022/09/28 06:13:13;;;;;;;0.53;0.30;;;13.80;78.40;13.80;94515.00;;;;5073885;28;20230;-80
2022/09/28 06:15:43;;;;;;;0.30;0.13;;;13.70;78.30;13.70;94517.00;;;;5064648;28;21013;-78
2022/09/28 06:18:13;;;;;;;0.30;0.30;;;13.70;78.30;13.70;94524.00;;;;5075038;28;20211;-78
2022/09/28 06:20:42;;;;;;;0.33;0.33;;;13.70;78.50;13.70;94521.00;;;;5062330;28;20213;-80
2022/09/28 06:23:15;;;;;;;0.40;0.40;;;13.70;78.50;13.70;94520.00;;;;5071483;28;20560;-81
2022/09/28 06:25:44;;;;;;;0.23;0.20;;;13.70;78.70;13.70;94523.00;;;;5068164;28;20221;-80
2022/09/28 06:28:14;;;;;;;0.73;0.20;;;13.70;78.90;13.70;94524.00;;;;5076753;28;20226;-79
2022/09/28 06:30:43;;;;;;;0.20;0.20;;;13.70;78.90;13.70;94523.00;;;;5073242;28;20243;-78
2022/09/28 06:33:13;;;;;;;0.17;0.17;;;13.70;78.80;13.70;94529.00;;;;5062727;28;20200;-78
2022/09/28 06:35:41;;;;;;;0.30;0.30;;;13.70;79.00;13.70;94528.00;;;;5072311;28;20295;-78
2022/09/28 06:38:08;;;;;;;3.87;3.27;;;13.70;79.30;13.80;94533.00;;;;5072772;28;20192;-80
2022/09/28 06:40:36;;;;;;;4.17;3.73;;;13.70;79.50;13.80;94532.00;;;;5073526;28;20278;-80
2022/09/28 06:43:09;;;;;;;4.30;3.90;;;13.70;79.70;13.90;94533.00;;;;5074470;28;20192;-80
2022/09/28 06:45:37;;;;;;;1.80;1.70;;;13.70;80.00;13.90;94527.00;;;;5063887;28;20239;-78
2022/09/28 06:48:12;;;;;;;1.00;1.00;;;13.70;80.00;13.90;94532.00;;;;5076470;28;20259;-79
2022/09/28 06:50:41;;;;;;;0.80;0.70;;;13.70;79.90;13.90;94532.00;;;;5074583;28;20215;-80
2022/09/28 06:53:13;;;;;;;1.20;0.60;;;13.80;80.00;13.90;94535.00;;;;5068322;28;20204;-78
2022/09/28 06:55:42;;;;;;;0.30;0.30;;;13.80;80.10;13.90;94528.00;;;;5054636;28;20574;-79
2022/09/28 06:58:14;;;;;;;0.30;0.30;;;13.80;80.30;13.90;94516.00;;;;5073318;28;20245;-79
2022/09/28 07:00:43;;;;;;;0.40;0.40;;;13.80;80.50;14.00;94526.00;;;;5059884;28;20222;-80
2022/09/28 07:03:14;;;;;;;1.03;0.53;;;13.80;80.60;14.10;94533.00;;;;5052864;28;20236;-80
2022/09/28 07:05:44;;;;;;;0.47;0.40;;;13.90;80.70;14.10;94534.00;;;;5061594;28;20273;-79
2022/09/28 07:08:12;;;;;;;0.60;0.60;;;13.90;80.90;14.20;94549.00;;;;5057633;28;20279;-80
2022/09/28 07:10:43;;;;;;;0.77;0.77;;;13.90;81.00;14.20;94540.00;;;;5069323;28;20255;-80
2022/09/28 07:13:14;;;;;;;0.63;0.53;;;13.90;81.10;14.30;94539.00;;;;5074372;28;20660;-81
2022/09/28 07:15:42;;;;;;;0.50;0.50;;;14.00;81.30;14.30;94548.00;;;;5066063;28;20238;-79
2022/09/28 07:18:12;;;;;;;0.93;0.70;;;14.00;81.20;14.40;94551.00;;;;5054161;28;20287;-78
2022/09/28 07:20:50;;;;;;;0.60;0.60;;;14.00;81.20;14.40;94548.00;;;;5060426;28;20225;-80
2022/09/28 07:23:18;;;;;;;0.50;0.50;;;14.10;81.10;14.40;94560.00;;;;5068589;28;20192;-79
2022/09/28 07:25:53;;;;;;;1.10;0.60;;;14.10;81.00;14.50;94553.00;;;;5062475;28;20947;-80
2022/09/28 07:28:21;;;;;;;1.07;0.40;;;14.20;81.00;14.50;94555.00;;;;5068117;28;20192;-80
2022/09/28 07:30:49;;;;;;;0.63;0.50;;;14.20;81.10;14.60;94565.00;;;;5056822;28;20747;-80
2022/09/28 07:33:17;;;;;;;1.23;0.50;;;14.20;81.10;14.60;94572.00;;;;5059130;28;20199;-81
2022/09/28 07:35:51;;;;;;;0.50;0.50;;;14.20;81.10;14.70;94566.00;;;;5077915;28;20204;-80
2022/09/28 07:38:19;;;;;;;1.60;0.67;;;14.30;81.10;14.70;94565.00;;;;5074508;28;20191;-81
2022/09/28 07:43:33;;;;;;;1.60;0.87;;;14.30;80.70;14.70;94570.00;;;;5076775;28;20210;-79
2022/09/28 07:46:00;;;;;;;1.23;0.70;;;14.40;80.80;14.70;94568.00;;;;5037122;28;20263;-78
2022/09/28 07:48:27;;;;;;;0.70;0.70;;;14.40;80.70;14.80;94577.00;;;;5061941;28;20223;-80
2022/09/28 07:50:58;;;;;;;1.67;0.50;;;14.40;80.50;14.80;94569.00;;;;5065118;28;20724;-80
2022/09/28 07:53:27;;;;;;;0.40;0.40;;;14.40;80.60;14.80;94571.00;;;;5065581;28;20192;-79
2022/09/28 07:56:00;;;;;;;0.27;0.27;;;14.40;80.50;14.80;94563.00;;;;5066889;28;20193;-79
2022/09/28 07:58:28;;;;;;;0.60;0.60;;;14.50;80.50;14.80;94578.00;;;;5064189;28;20196;-79
2022/09/28 08:00:59;;;;;;;1.57;1.47;;;14.50;80.70;14.80;94579.00;;;;5070143;28;20239;-79
2022/09/28 08:03:27;;;;;;;1.30;1.00;;;14.50;80.80;14.80;94579.00;;;;5059705;28;20287;-79
2022/09/28 08:05:58;;;;;;;0.70;0.70;;;14.50;80.70;14.90;94578.00;;;;5062970;28;20311;-78
2022/09/28 08:08:25;;;;;;;0.97;0.97;;;14.50;80.50;14.90;94582.00;;;;5056120;28;20313;-79
2022/09/28 08:10:53;;;;;;;0.67;0.63;;;14.60;80.60;14.90;94580.00;;;;5053508;28;20307;-79
2022/09/28 08:13:21;;;;;;;0.83;0.80;;;14.60;80.60;14.90;94576.00;;;;5068728;28;20283;-79
2022/09/28 08:15:49;;;;;;;0.50;0.50;;;14.60;80.60;14.90;94573.00;;;;5070004;28;20239;-79
2022/09/28 08:18:19;;;;;;;1.33;0.57;;;14.60;80.50;15.00;94590.00;;;;5064273;28;20193;-79
2022/09/28 08:23:27;;;;;;;0.97;0.60;;;14.70;80.60;15.00;94594.00;;;;5033981;28;20208;-80
2022/09/28 08:25:55;;;;;;;0.50;0.50;;;14.70;80.60;15.00;94594.00;;;;5068922;28;20244;-81
2022/09/28 08:28:23;;;;;;;0.70;0.70;;;14.70;80.90;15.00;94598.00;;;;5070892;28;20223;-80
2022/09/28 08:30:51;;;;;;;0.53;0.53;;;14.70;80.90;15.00;94602.00;;;;5065641;28;20272;-81
2022/09/28 08:33:21;;;;;;;0.60;0.60;;;14.70;81.10;15.10;94605.00;;;;5061015;28;20243;-81
2022/09/28 08:35:56;;;;;;;0.40;0.40;;;14.80;81.10;15.10;94607.00;;;;5072956;28;20203;-80
2022/09/28 08:38:23;;;;;;;0.37;0.37;;;14.80;81.10;15.10;94609.00;;;;5058419;28;20196;-80
2022/09/28 08:41:04;;;;;;;0.93;0.50;;;14.80;81.00;15.10;94604.00;;;;5056470;28;20280;-80
2022/09/28 08:43:57;;;;;;;0.40;0.20;;;14.80;81.00;15.10;94604.00;;;;5058991;28;20201;-80
2022/09/28 08:46:31;;;;;;;0.60;0.27;;;14.80;81.10;15.10;94608.00;;;;5059227;28;20217;-81
2022/09/28 08:49:09;;;;;;;0.37;0.37;;;14.80;80.80;15.10;94621.00;;;;5057739;28;20280;-81
2022/09/28 08:51:45;;;;;;;0.70;0.30;;;14.80;81.00;15.10;94627.00;;;;5068356;28;20243;-81
2022/09/28 08:54:29;;;;;;;0.43;0.43;;;14.80;81.00;15.10;94628.00;;;;5069363;28;20234;-81
2022/09/28 08:57:02;;;;;;;0.20;0.20;;;14.80;81.00;15.10;94650.00;;;;5056431;28;20631;-80
2022/09/28 08:59:46;;;;;;;0.20;0.20;;;14.90;81.10;15.20;94664.00;;;;5057817;28;20193;-82
2022/09/28 09:02:20;;;;;;;0.50;0.10;;;14.90;81.10;15.10;94672.00;;;;5065709;28;20243;-80
2022/09/28 09:04:51;;;;;;;0.17;0.17;;;14.90;80.70;15.10;94677.00;;;;5055035;28;20673;-80
2022/09/28 09:07:49;;;;;;;1.30;0.20;;;14.90;80.50;15.10;94683.00;;;;5063017;28;20238;-80
2022/09/28 09:10:49;;;;;;;0.10;0.10;;;14.90;80.00;15.00;94695.00;;;;5069994;28;20223;-80
2022/09/28 09:13:59;;;;;;;0.20;0.10;;;14.80;80.20;14.90;94702.00;;;;5057679;28;20189;-80
2022/09/28 09:16:40;;;;;;;0.27;0.10;;;14.80;79.40;14.80;94711.00;;;;5061714;28;20622;-79
2022/09/28 09:19:35;;;;;;;0.20;0.20;;;14.70;79.40;14.80;94708.00;;;;5070387;28;20210;-80
2022/09/28 09:22:21;;;;;;;0.20;0.10;;;14.70;79.40;14.80;94711.00;;;;5065911;28;20212;-81
2022/09/28 09:24:58;;;;;;;0.50;0.13;;;14.60;79.40;14.80;94719.00;;;;5069418;28;20545;-80
2022/09/28 09:27:49;;;;;;;0.17;0.17;;;14.60;79.50;14.70;94709.00;;;;5074668;28;20220;-80
2022/09/28 09:30:24;;;;;;;0.33;0.30;;;14.60;79.90;14.80;94702.00;;;;5063549;28;20918;-81
2022/09/28 09:33:34;;;;;;;0.40;0.30;;;14.50;79.90;14.80;94700.00;;;;5064551;28;20199;-81
2022/09/28 09:36:23;;;;;;;0.30;0.30;;;14.50;80.20;14.80;94697.00;;;;5069956;28;20234;-80
2022/09/28 09:39:24;;;;;;;0.10;0.10;;;14.60;80.20;14.90;94695.00;;;;5068543;28;20227;-80
2022/09/28 09:42:12;;;;;;;0.20;0.20;;;14.60;80.10;14.90;94678.00;;;;5075333;28;20250;-80
2022/09/28 09:45:24;;;;;;;0.80;0.10;;;14.60;79.70;14.80;94681.00;;;;5075619;28;20230;-79
2022/09/28 09:48:00;;;;;;;0.20;0.10;;;14.60;79.60;14.90;94680.00;;;;5066592;28;20258;-80
2022/09/28 09:50:39;;;;;;;0.40;0.20;;;14.50;79.70;14.90;94691.00;;;;5076099;28;20196;-81
2022/09/28 09:53:19;;;;;;;0.10;0.10;;;14.60;80.10;15.00;94694.00;;;;5070596;28;20242;-81
2022/09/28 09:55:56;;;;;;;0.60;0.40;;;14.60;80.20;15.00;94697.00;;;;5059764;28;20200;-81
2022/09/28 09:58:31;;;;;;;0.60;0.53;;;14.60;80.30;15.10;94688.00;;;;5068528;28;20191;-80
2022/09/28 10:01:12;;;;;;;1.37;0.60;;;14.70;80.40;15.10;94702.00;;;;5069512;28;20683;-80
2022/09/28 10:03:45;;;;;;;2.10;0.40;;;14.70;80.80;15.20;94703.00;;;;5060063;28;20854;-79
2022/09/28 10:06:18;;;;;;;1.07;0.40;;;14.70;80.80;15.30;94714.00;;;;5067670;28;20319;-80
2022/09/28 10:08:58;;;;;;;0.83;0.47;;;14.80;80.90;15.30;94700.00;;;;5066563;28;20192;-80
2022/09/28 10:11:34;;;;;;;0.47;0.40;;;14.80;80.80;15.40;94714.00;;;;5066723;28;20674;-80
2022/09/28 10:14:02;;;;;;;0.40;0.40;;;14.90;81.00;15.40;94708.00;;;;5075164;28;20195;-79
2022/09/28 10:16:32;;;;;;;0.90;0.50;;;14.90;80.70;15.40;94710.00;;;;5076331;28;20619;-79
2022/09/28 10:19:00;;;;;;;0.40;0.30;;;15.00;80.40;15.40;94725.00;;;;5072331;28;20736;-80
2022/09/28 10:21:29;;;;;;;0.87;0.60;;;15.00;80.10;15.40;94717.00;;;;5058323;28;20841;-80
2022/09/28 10:24:01;;;;;;;0.60;0.60;;;15.00;80.00;15.40;94707.00;;;;5061059;28;20219;-79
2022/09/28 10:26:37;;;;;;;0.50;0.50;;;15.00;79.90;15.40;94712.00;;;;5072829;28;20212;-79
2022/09/28 10:29:13;;;;;;;1.27;0.60;;;15.10;80.00;15.40;94722.00;;;;5062993;28;20706;-78
2022/09/28 10:31:44;;;;;;;0.77;0.60;;;15.10;80.00;15.50;94724.00;;;;5069387;28;20208;-79
2022/09/28 10:34:13;;;;;;;0.67;0.60;;;15.10;80.00;15.50;94721.00;;;;5064666;28;20200;-80
2022/09/28 10:36:54;;;;;;;0.70;0.70;;;15.10;80.10;15.50;94726.00;;;;5060209;28;20197;-80
2022/09/28 10:39:46;;;;;;;0.70;0.63;;;15.10;80.30;15.50;94725.00;;;;5074779;28;20203;-79
2022/09/28 10:42:22;;;;;;;0.80;0.73;;;15.20;80.60;15.60;94722.00;;;;5070325;28;20259;-80
2022/09/28 10:44:55;;;;;;;0.90;0.77;;;15.20;80.70;15.70;94727.00;;;;5070504;28;20283;-80
2022/09/28 10:47:25;;;;;;;1.87;1.00;;;15.20;80.70;15.80;94742.00;;;;5071650;28;20228;-79
2022/09/28 10:49:55;;;;;;;1.10;0.77;;;15.30;80.90;15.80;94743.00;;;;5066793;28;20231;-80
2022/09/28 10:52:38;;;;;;;1.20;0.60;;;15.30;80.80;15.90;94750.00;;;;5066789;28;20307;-80
2022/09/28 10:55:29;;;;;;;0.47;0.47;;;15.40;81.00;15.90;94754.00;;;;5057520;28;20196;-79
2022/09/28 10:57:59;;;;;;;0.50;0.50;;;15.40;80.70;15.90;94754.00;;;;5063795;28;20620;-81
2022/09/28 11:00:39;;;;;;;0.43;0.43;;;15.50;80.40;15.90;94747.00;;;;5073233;28;20279;-80
2022/09/28 11:03:17;;;;;;;0.50;0.50;;;15.50;80.20;15.90;94748.00;;;;5062578;28;20227;-81
2022/09/28 11:05:55;;;;;;;1.30;1.13;;;15.60;80.10;16.00;94745.00;;;;5065865;28;20528;-80
2022/09/28 11:08:34;;;;;;;1.63;1.30;;;15.60;79.90;16.00;94748.00;;;;5099760;23;20783;-85
2022/09/28 11:11:11;;;;;;;2.10;1.47;;;15.60;79.90;16.00;94753.00;;;;5074734;28;20278;-86
2022/09/28 11:13:53;;;;;;;1.07;1.03;;;15.60;80.00;16.10;94756.00;;;;5088016;28;20658;-87
2022/09/28 11:16:28;;;;;;;0.90;0.80;;;15.70;80.10;16.10;94750.00;;;;5087953;28;20203;-87
2022/09/28 11:18:56;;;;;;;0.60;0.50;;;15.70;80.50;16.10;94755.00;;;;5083150;28;20194;-88
2022/09/28 11:21:27;;;;;;;1.73;1.00;;;15.70;79.80;16.10;94758.00;;;;5080049;22;20231;-85
2022/09/28 11:24:04;;;;;;;0.60;0.60;;;15.70;79.80;16.10;94762.00;;;;5046528;28;20201;-87
2022/09/28 11:26:41;;;;;;;0.87;0.80;;;15.70;79.10;16.10;94760.00;;;;5041152;28;20595;-87
2022/09/28 11:29:25;;;;;;;0.70;0.60;;;15.70;78.80;16.10;94761.00;;;;5037360;28;20785;-87
2022/09/28 11:31:53;;;;;;;0.60;0.40;;;15.80;78.40;16.10;94767.00;;;;5049956;28;20216;-86